Time;durP1;ratioP1;P1;durP2;ratioP2;P2;SDS_P1;SDS_P2;PMS_P1;PMS_P2;Temp;Humidity;BMP_temperature;BMP_pressure;BME280_temperature;BME280_humidity;BME280_pressure;Samples;Min_cycle;Max_cycle;Signal;HPM_P1;HPM_P2
2021/12/28 00:01:58;;;;;;;59.63;18.27;;;;;;;10.08;79.60;99432.84;4964039;28;20050;-58
2021/12/28 00:04:24;;;;;;;59.22;18.55;;;;;;;10.05;79.53;99425.09;4963182;28;20046;-59
2021/12/28 00:06:49;;;;;;;60.70;17.95;;;;;;;10.05;79.64;99432.03;4958594;28;20034;-60
2021/12/28 00:09:14;;;;;;;63.55;18.60;;;;;;;10.13;79.90;99430.22;4952688;28;20548;-60
2021/12/28 00:11:40;;;;;;;61.92;18.20;;;;;;;10.22;79.18;99431.94;4958386;28;20054;-59
2021/12/28 00:14:06;;;;;;;66.97;18.92;;;;;;;10.18;79.39;99425.03;4976110;28;20520;-59
2021/12/28 00:17:58;;;;;;;70.22;18.33;;;;;;;10.16;79.22;99420.69;4957277;28;20038;-59
2021/12/28 00:19:17;;;;;;;58.28;17.35;;;;;;;10.12;79.41;99420.69;4957047;28;20057;-59
2021/12/28 00:21:42;;;;;;;59.35;16.70;;;;;;;10.16;79.66;99414.56;4958354;28;20034;-59
2021/12/28 00:24:08;;;;;;;52.00;17.17;;;;;;;10.17;79.58;99411.13;4960018;28;20070;-59
2021/12/28 00:26:33;;;;;;;61.53;15.75;;;;;;;10.21;79.12;99422.38;4966397;28;20401;-59
2021/12/28 00:28:58;;;;;;;59.03;16.17;;;;;;;10.22;79.61;99414.56;4959027;28;20109;-59
2021/12/28 00:31:26;;;;;;;57.08;15.48;;;;;;;10.24;79.77;99423.22;4949418;28;20367;-60
2021/12/28 00:33:52;;;;;;;57.05;14.90;;;;;;;10.20;79.96;99421.50;4959636;28;20301;-59
2021/12/28 00:36:18;;;;;;;55.53;14.30;;;;;;;10.27;79.60;99417.97;4957502;28;20042;-60
2021/12/28 00:38:43;;;;;;;53.10;14.30;;;;;;;10.36;79.06;99422.25;4958506;28;20046;-60
2021/12/28 00:41:09;;;;;;;42.83;13.02;;;;;;;10.23;79.91;99418.91;4964122;28;20041;-60
2021/12/28 00:43:35;;;;;;;53.05;13.85;;;;;;;10.31;79.65;99417.06;4945253;28;21381;-60
2021/12/28 00:46:01;;;;;;;46.38;12.98;;;;;;;10.35;79.43;99415.31;4961267;28;20118;-59
2021/12/28 00:48:26;;;;;;;50.78;12.30;;;;;;;10.26;79.13;99405.84;4955223;28;20066;-59
2021/12/28 00:50:52;;;;;;;42.38;12.15;;;;;;;10.31;79.18;99409.25;4975553;28;20180;-59
2021/12/28 00:53:18;;;;;;;47.17;12.60;;;;;;;10.27;79.39;99399.75;4958944;28;20471;-61
2021/12/28 00:55:43;;;;;;;40.08;11.13;;;;;;;10.29;79.03;99400.59;4955895;28;20070;-59
2021/12/28 00:58:10;;;;;;;51.15;11.20;;;;;;;10.32;79.13;99397.97;4957648;28;20046;-59
2021/12/28 01:00:38;;;;;;;45.40;11.57;;;;;;;10.29;79.04;99394.53;4959136;28;20319;-60
2021/12/28 01:03:05;;;;;;;44.28;11.43;;;;;;;10.18;79.68;99387.66;4958754;28;20138;-59
2021/12/28 01:05:31;;;;;;;40.88;11.02;;;;;;;10.17;79.04;99382.50;4948011;28;20039;-60
2021/12/28 01:07:56;;;;;;;47.00;11.68;;;;;;;10.15;79.35;99379.84;4961350;28;20050;-59
2021/12/28 01:10:25;;;;;;;41.75;11.05;;;;;;;10.09;79.24;99377.31;4963040;28;20042;-59
2021/12/28 01:12:52;;;;;;;40.72;11.40;;;;;;;10.02;79.46;99383.44;4959447;28;20061;-60
2021/12/28 01:15:19;;;;;;;41.30;11.38;;;;;;;10.04;79.35;99378.22;4940517;28;20526;-59
2021/12/28 01:17:44;;;;;;;39.67;11.60;;;;;;;9.94;79.66;99373.97;4957510;28;20034;-59
2021/12/28 01:20:11;;;;;;;42.38;11.95;;;;;;;9.78;79.38;99368.88;4956368;28;20513;-59
2021/12/28 01:22:37;;;;;;;42.75;12.05;;;;;;;9.86;79.38;99374.03;4960334;28;20085;-59
2021/12/28 01:25:03;;;;;;;39.10;11.40;;;;;;;9.82;79.09;99377.50;4954323;28;20431;-58
2021/12/28 01:27:28;;;;;;;38.97;11.07;;;;;;;9.70;78.74;99377.59;4953190;28;20058;-59
2021/12/28 01:29:54;;;;;;;49.17;11.32;;;;;;;9.68;78.65;99377.63;4958473;28;20331;-59
2021/12/28 01:32:19;;;;;;;40.65;10.68;;;;;;;9.68;78.90;99376.78;4953445;28;20050;-59
2021/12/28 01:34:44;;;;;;;44.70;10.90;;;;;;;9.58;79.31;99370.75;4973573;28;20121;-59
2021/12/28 01:37:11;;;;;;;47.88;10.30;;;;;;;9.56;79.01;99369.03;4959220;28;20097;-60
2021/12/28 01:39:36;;;;;;;42.63;11.15;;;;;;;9.57;79.34;99368.19;4956950;28;20492;-59
2021/12/28 01:42:05;;;;;;;41.50;11.32;;;;;;;9.60;79.14;99366.41;4962312;28;20046;-59
2021/12/28 01:44:31;;;;;;;45.30;10.90;;;;;;;9.58;79.12;99368.16;4959413;28;20162;-59
2021/12/28 01:46:56;;;;;;;42.28;11.27;;;;;;;9.62;79.75;99369.00;4955603;28;20046;-60
2021/12/28 01:49:22;;;;;;;45.75;11.07;;;;;;;9.74;79.35;99372.38;4956887;28;20077;-60
2021/12/28 01:51:47;;;;;;;35.50;10.88;;;;;;;9.76;79.18;99370.63;4964639;28;20453;-60
2021/12/28 01:54:13;;;;;;;40.05;10.48;;;;;;;9.81;79.19;99365.41;4957503;28;21579;-59
2021/12/28 01:56:44;;;;;;;42.20;10.40;;;;;;;9.76;79.18;99372.34;4959852;28;20077;-60
2021/12/28 01:59:10;;;;;;;47.03;10.93;;;;;;;9.84;79.23;99369.69;4963139;28;20053;-60
2021/12/28 02:01:35;;;;;;;41.92;10.05;;;;;;;9.88;78.95;99376.63;4961580;28;20061;-58
2021/12/28 02:04:02;;;;;;;40.85;9.38;;;;;;;9.88;78.42;99369.66;4954836;28;20046;-59
2021/12/28 02:06:28;;;;;;;44.05;9.52;;;;;;;9.90;78.73;99378.31;4962090;28;20479;-60
2021/12/28 02:08:54;;;;;;;39.58;9.63;;;;;;;9.88;78.92;99377.47;4960800;28;20093;-59
2021/12/28 02:11:20;;;;;;;41.08;9.73;;;;;;;9.90;78.98;99375.72;4957224;28;20245;-61
2021/12/28 02:13:45;;;;;;;43.30;9.02;;;;;;;9.90;78.83;99372.25;4950149;28;20093;-59
2021/12/28 02:16:11;;;;;;;40.70;8.82;;;;;;;9.86;78.70;99365.34;4959046;28;20049;-60
2021/12/28 02:18:37;;;;;;;50.28;9.02;;;;;;;9.90;78.53;99367.03;4967396;28;20341;-59
2021/12/28 02:21:05;;;;;;;35.42;8.75;;;;;;;9.84;78.95;99360.16;4963756;28;20421;-59
2021/12/28 02:23:32;;;;;;;41.42;8.65;;;;;;;9.89;78.86;99354.91;4958080;28;20135;-59
2021/12/28 02:25:57;;;;;;;39.38;8.82;;;;;;;9.89;78.95;99360.09;4962879;28;20942;-59
2021/12/28 02:28:23;;;;;;;34.22;8.73;;;;;;;9.94;78.67;99359.19;4959001;28;20042;-60
2021/12/28 02:30:56;;;;;;;43.67;7.88;;;;;;;9.84;79.14;99360.16;4960582;28;20031;-59
2021/12/28 02:33:25;;;;;;;36.95;7.88;;;;;;;9.87;78.79;99364.50;4973898;28;20062;-60
2021/12/28 02:35:53;;;;;;;35.28;8.23;;;;;;;10.00;78.53;99366.94;4964925;28;20046;-60
2021/12/28 02:38:18;;;;;;;37.08;8.20;;;;;;;10.05;78.39;99360.00;4957837;28;20072;-59
2021/12/28 02:40:44;;;;;;;41.08;8.55;;;;;;;10.04;78.12;99360.00;4964521;28;20038;-59
2021/12/28 02:43:12;;;;;;;40.53;8.25;;;;;;;10.06;78.97;99363.47;4959108;28;20386;-59
2021/12/28 02:45:45;;;;;;;40.88;8.48;;;;;;;10.04;78.62;99353.06;4950958;28;20046;-60
2021/12/28 02:48:10;;;;;;;43.63;7.68;;;;;;;10.13;78.48;99354.69;4979736;28;20085;-60
2021/12/28 02:50:39;;;;;;;44.53;8.52;;;;;;;10.15;78.55;99351.22;4961765;28;20407;-59
2021/12/28 02:53:06;;;;;;;41.13;7.97;;;;;;;10.05;78.86;99339.16;4959899;28;20132;-58
2021/12/28 02:55:32;;;;;;;39.70;7.40;;;;;;;10.12;78.36;99351.22;4952959;28;20352;-59
2021/12/28 02:58:00;;;;;;;45.90;8.80;;;;;;;10.00;78.28;99348.72;4958862;28;21317;-58
2021/12/28 03:00:38;;;;;;;41.25;8.40;;;;;;;9.99;78.94;99340.97;4962454;28;20062;-58
2021/12/28 03:03:09;;;;;;;42.10;8.05;;;;;;;10.08;78.70;99331.31;4962471;28;20440;-59
2021/12/28 03:05:36;;;;;;;37.80;7.68;;;;;;;10.11;78.14;99335.63;4957961;28;20522;-59
2021/12/28 03:08:02;;;;;;;41.05;7.63;;;;;;;10.02;78.70;99328.75;4976520;28;20092;-59
2021/12/28 03:10:28;;;;;;;41.45;7.47;;;;;;;10.01;78.95;99318.34;4960804;28;20398;-59
2021/12/28 03:12:53;;;;;;;39.53;7.30;;;;;;;10.07;78.65;99332.19;4961959;28;20391;-59
2021/12/28 03:15:19;;;;;;;41.88;7.40;;;;;;;10.02;78.91;99328.75;4958097;28;20459;-59
2021/12/28 03:17:44;;;;;;;35.53;6.82;;;;;;;10.09;78.67;99322.63;4956569;28;20548;-59
2021/12/28 03:20:14;;;;;;;39.60;7.50;;;;;;;10.14;78.41;99320.84;4962366;28;20086;-59
2021/12/28 03:22:40;;;;;;;37.85;7.35;;;;;;;10.14;78.22;99320.84;4957728;28;20043;-60
2021/12/28 03:25:07;;;;;;;40.85;7.63;;;;;;;10.17;78.27;99317.38;4959614;28;20039;-59
2021/12/28 03:27:32;;;;;;;31.52;7.40;;;;;;;10.14;77.95;99314.75;4951593;28;20062;-59
2021/12/28 03:29:58;;;;;;;42.63;7.60;;;;;;;10.10;77.77;99308.72;4959279;28;20073;-58
2021/12/28 03:32:23;;;;;;;40.70;7.43;;;;;;;10.01;78.32;99301.00;4956111;28;20058;-60
2021/12/28 03:34:48;;;;;;;36.13;7.18;;;;;;;9.96;78.37;99297.56;4961788;28;20149;-59
2021/12/28 03:37:14;;;;;;;36.80;7.30;;;;;;;10.02;78.02;99297.53;4960110;28;20137;-59
2021/12/28 03:39:40;;;;;;;34.63;7.10;;;;;;;10.03;78.45;99287.97;4953370;28;20453;-59
2021/12/28 03:42:05;;;;;;;30.92;7.40;;;;;;;10.04;78.18;99289.69;4960763;28;20466;-59
2021/12/28 03:44:32;;;;;;;33.10;7.20;;;;;;;10.13;77.96;99284.38;4960953;28;20077;-59
2021/12/28 03:46:57;;;;;;;32.65;7.40;;;;;;;10.08;78.03;99288.78;4958728;28;20046;-59
2021/12/28 03:49:22;;;;;;;32.60;7.25;;;;;;;10.03;78.25;99285.38;4952609;28;20402;-59
2021/12/28 03:51:48;;;;;;;33.70;8.02;;;;;;;10.07;78.30;99279.25;4962545;28;20078;-59
2021/12/28 03:54:13;;;;;;;39.13;8.07;;;;;;;10.07;78.55;99282.72;4960573;28;20065;-60
2021/12/28 03:56:39;;;;;;;39.95;7.78;;;;;;;10.06;78.52;99285.34;4963252;28;20034;-59
2021/12/28 03:59:04;;;;;;;37.40;8.20;;;;;;;10.04;78.56;99282.75;4945931;28;20052;-59
2021/12/28 04:01:30;;;;;;;43.28;8.38;;;;;;;10.11;78.24;99278.34;4953903;28;20052;-59
2021/12/28 04:03:55;;;;;;;44.92;8.60;;;;;;;10.06;78.79;99277.53;4962143;28;20680;-59
2021/12/28 04:06:21;;;;;;;40.08;8.80;;;;;;;10.08;78.90;99279.22;4957317;28;20053;-59
2021/12/28 04:08:48;;;;;;;37.95;8.55;;;;;;;10.13;78.57;99279.19;4975753;28;20038;-58
2021/12/28 04:11:25;;;;;;;43.65;8.63;;;;;;;10.16;78.78;99279.16;4962775;28;20137;-59
2021/12/28 04:13:51;;;;;;;45.40;9.18;;;;;;;10.06;78.82;99273.16;4964237;28;20048;-60
2021/12/28 04:16:17;;;;;;;40.88;8.77;;;;;;;10.16;78.34;99267.03;4977537;28;20409;-60
2021/12/28 04:18:43;;;;;;;52.22;9.57;;;;;;;10.24;78.31;99268.72;4965104;28;20037;-59
2021/12/28 04:21:09;;;;;;;41.67;9.60;;;;;;;10.26;78.53;99256.50;4954389;28;20046;-60
2021/12/28 04:23:35;;;;;;;50.42;10.40;;;;;;;10.19;78.44;99258.31;4952138;28;20986;-59
2021/12/28 04:26:02;;;;;;;46.78;9.55;;;;;;;10.26;78.92;99251.28;4962372;28;20112;-59
2021/12/28 04:28:27;;;;;;;41.17;9.43;;;;;;;10.27;79.11;99250.41;4955456;28;20158;-60
2021/12/28 04:30:53;;;;;;;47.40;9.77;;;;;;;10.34;79.03;99249.47;4950406;28;20474;-60
2021/12/28 04:33:19;;;;;;;48.65;9.50;;;;;;;10.20;79.35;99241.81;4954846;28;20059;-62
2021/12/28 04:35:44;;;;;;;44.83;9.82;;;;;;;10.37;78.92;99247.69;4960435;28;20042;-59
2021/12/28 04:38:10;;;;;;;50.78;9.65;;;;;;;10.46;78.68;99251.94;4951555;28;20046;-59
2021/12/28 04:40:35;;;;;;;43.45;8.85;;;;;;;10.53;78.37;99246.66;4955304;28;20350;-60
2021/12/28 04:43:00;;;;;;;45.03;9.18;;;;;;;10.60;78.63;99251.78;4957897;28;20050;-59
2021/12/28 04:45:26;;;;;;;47.88;8.98;;;;;;;10.57;78.24;99248.31;4952527;28;20527;-59
2021/12/28 04:47:51;;;;;;;47.50;8.30;;;;;;;10.62;78.71;99243.03;4947334;28;20042;-59
2021/12/28 04:50:17;;;;;;;45.80;8.00;;;;;;;10.50;78.86;99241.44;4957110;28;20058;-60
2021/12/28 04:52:43;;;;;;;41.80;7.88;;;;;;;10.54;78.90;99237.94;4959253;28;20082;-59
2021/12/28 04:55:14;;;;;;;42.45;8.05;;;;;;;10.57;79.27;99239.63;4953986;28;20153;-61
2021/12/28 04:57:40;;;;;;;37.40;7.28;;;;;;;10.71;79.36;99231.66;4951635;28;20058;-60
2021/12/28 05:00:09;;;;;;;48.40;8.00;;;;;;;10.70;79.57;99230.78;4954629;28;20046;-60
2021/12/28 05:02:35;;;;;;;41.22;7.47;;;;;;;10.77;79.61;99222.00;4955695;28;20288;-60
2021/12/28 05:05:03;;;;;;;37.70;8.10;;;;;;;10.80;79.34;99221.06;4958122;28;20073;-60
2021/12/28 05:07:29;;;;;;;40.90;7.47;;;;;;;10.86;79.15;99224.47;4952226;28;20361;-59
2021/12/28 05:09:57;;;;;;;37.17;8.05;;;;;;;10.88;79.47;99214.88;4962353;28;20485;-59
2021/12/28 05:12:27;;;;;;;35.08;7.22;;;;;;;10.97;79.15;99217.38;4961419;28;20099;-60
2021/12/28 05:14:53;;;;;;;36.00;7.30;;;;;;;11.02;79.26;99213.81;4967708;28;20056;-59
2021/12/28 05:17:19;;;;;;;25.98;6.82;;;;;;;11.08;79.37;99214.59;4954557;28;20614;-59
2021/12/28 05:19:44;;;;;;;35.33;7.05;;;;;;;11.06;78.85;99213.75;4968919;28;20042;-60
2021/12/28 05:22:12;;;;;;;30.52;7.57;;;;;;;11.07;79.08;99207.66;4959528;28;20077;-60
2021/12/28 05:24:37;;;;;;;30.70;8.07;;;;;;;11.03;79.16;99203.38;4962274;28;20673;-60
2021/12/28 05:27:03;;;;;;;33.97;7.60;;;;;;;11.07;79.50;99204.19;4967569;28;20085;-59
2021/12/28 05:29:28;;;;;;;38.63;8.85;;;;;;;11.14;79.37;99209.28;4973190;28;20034;-60
2021/12/28 05:31:54;;;;;;;38.33;8.88;;;;;;;11.19;79.26;99202.25;4964528;28;20038;-60
2021/12/28 05:34:19;;;;;;;36.42;8.85;;;;;;;11.22;79.11;99196.13;4959604;28;20046;-60
2021/12/28 05:36:46;;;;;;;31.13;8.48;;;;;;;11.23;78.70;99193.47;4962348;28;20073;-60
2021/12/28 05:39:11;;;;;;;36.72;9.32;;;;;;;11.24;78.87;99191.72;4963274;28;20046;-61
2021/12/28 05:41:37;;;;;;;32.63;9.43;;;;;;;11.24;78.91;99189.13;4958468;28;20074;-60
2021/12/28 05:44:02;;;;;;;40.10;10.73;;;;;;;11.29;78.89;99190.78;4951133;28;20497;-59
2021/12/28 05:46:28;;;;;;;31.40;9.57;;;;;;;11.31;78.81;99185.53;4962067;28;20056;-59
2021/12/28 05:48:53;;;;;;;29.80;9.60;;;;;;;11.34;78.86;99190.72;4960662;28;20042;-60
2021/12/28 05:51:22;;;;;;;34.10;9.85;;;;;;;11.31;78.92;99183.78;4957245;28;20050;-59
2021/12/28 05:53:47;;;;;;;33.75;9.38;;;;;;;11.28;79.19;99180.38;4962848;28;20133;-59
2021/12/28 05:56:12;;;;;;;28.50;9.30;;;;;;;11.32;79.27;99174.22;4959792;28;20044;-59
2021/12/28 05:58:38;;;;;;;33.03;9.40;;;;;;;11.36;79.12;99168.06;4963494;28;20042;-59
2021/12/28 06:01:06;;;;;;;29.10;9.65;;;;;;;11.35;78.82;99167.19;4964084;28;20029;-60
2021/12/28 06:03:32;;;;;;;26.42;9.18;;;;;;;11.34;78.98;99162.03;4960777;28;20125;-60
2021/12/28 06:05:58;;;;;;;30.40;9.65;;;;;;;11.30;79.28;99153.38;4955111;28;20488;-59
2021/12/28 06:08:23;;;;;;;28.15;9.27;;;;;;;11.36;78.57;99155.88;4967223;28;20547;-59
2021/12/28 06:10:49;;;;;;;25.90;8.90;;;;;;;11.34;78.93;99151.59;4966121;28;20045;-59
2021/12/28 06:13:16;;;;;;;26.45;9.02;;;;;;;11.37;78.88;99136.72;4967748;28;20030;-60
2021/12/28 06:15:41;;;;;;;30.40;9.27;;;;;;;11.24;79.74;99139.56;4962443;28;20502;-59
2021/12/28 06:18:07;;;;;;;25.15;8.82;;;;;;;11.33;79.15;99131.59;4960119;28;20041;-61
2021/12/28 06:20:32;;;;;;;28.60;8.45;;;;;;;11.38;78.80;99134.97;4970628;28;20319;-60
2021/12/28 06:22:57;;;;;;;26.85;9.02;;;;;;;11.33;79.03;99132.47;4953262;28;20077;-59
2021/12/28 06:25:23;;;;;;;26.58;8.90;;;;;;;11.38;78.91;99138.44;4954954;28;20133;-60
2021/12/28 06:27:48;;;;;;;27.20;8.68;;;;;;;11.42;78.82;99136.63;4952152;28;20350;-59
2021/12/28 06:30:14;;;;;;;18.75;8.02;;;;;;;11.39;78.87;99134.97;4957825;28;20047;-59
2021/12/28 06:32:40;;;;;;;22.73;8.55;;;;;;;11.40;78.91;99128.84;4962965;28;20781;-61
2021/12/28 06:35:06;;;;;;;22.48;8.63;;;;;;;11.38;78.58;99135.84;4959695;28;20057;-60
2021/12/28 06:37:31;;;;;;;19.60;8.50;;;;;;;11.40;78.66;99133.22;4940546;28;20060;-59
2021/12/28 06:39:57;;;;;;;23.13;8.77;;;;;;;11.44;78.74;99132.25;4959072;28;20381;-60
2021/12/28 06:42:22;;;;;;;28.17;8.65;;;;;;;11.47;78.59;99123.50;4960392;28;20046;-59
2021/12/28 06:44:48;;;;;;;30.98;9.00;;;;;;;11.40;79.07;99122.78;4959349;28;20050;-60
2021/12/28 06:47:20;;;;;;;24.95;9.68;;;;;;;11.43;78.97;99129.66;4972608;28;20034;-59
2021/12/28 06:49:45;;;;;;;22.67;9.40;;;;;;;11.47;78.97;99126.09;4956328;28;20092;-60
2021/12/28 06:52:12;;;;;;;28.73;10.30;;;;;;;11.46;78.66;99125.28;4976422;28;20042;-60
2021/12/28 06:54:39;;;;;;;30.20;10.43;;;;;;;11.46;79.04;99124.41;4962801;28;20068;-60
2021/12/28 06:57:09;;;;;;;32.80;10.27;;;;;;;11.47;79.05;99128.72;4955688;28;20046;-60
2021/12/28 06:59:43;;;;;;;27.70;9.95;;;;;;;11.47;78.91;99123.50;4957851;28;21070;-59
2021/12/28 07:02:12;;;;;;;28.95;10.38;;;;;;;11.53;78.57;99128.59;4966906;28;20482;-60
2021/12/28 07:04:38;;;;;;;32.10;11.27;;;;;;;11.52;78.61;99125.16;4950378;28;20136;-59
2021/12/28 07:07:03;;;;;;;33.50;11.13;;;;;;;11.45;78.76;99127.91;4963021;28;20444;-60
2021/12/28 07:09:29;;;;;;;34.58;11.50;;;;;;;11.45;79.26;99125.28;4955851;28;20042;-60
2021/12/28 07:11:54;;;;;;;33.90;12.32;;;;;;;11.45;78.91;99120.94;4960447;28;20070;-59
2021/12/28 07:14:20;;;;;;;33.53;12.30;;;;;;;11.38;79.28;99107.16;4953532;28;20461;-59
2021/12/28 07:16:45;;;;;;;34.78;13.43;;;;;;;11.43;79.19;99095.75;4959991;28;20046;-59
2021/12/28 07:19:11;;;;;;;33.40;12.43;;;;;;;11.47;79.29;99098.28;4965440;28;20494;-60
2021/12/28 07:21:37;;;;;;;41.38;14.23;;;;;;;11.48;78.84;99097.38;4954196;28;20177;-60
2021/12/28 07:24:04;;;;;;;39.83;14.23;;;;;;;11.49;79.19;99101.72;4962543;28;20057;-59
2021/12/28 07:26:30;;;;;;;41.00;14.23;;;;;;;11.47;79.18;99107.84;4961546;28;20528;-60
2021/12/28 07:28:55;;;;;;;38.17;15.18;;;;;;;11.54;79.00;99112.06;4960377;28;20078;-60
2021/12/28 07:31:21;;;;;;;44.75;15.98;;;;;;;11.56;79.03;99112.91;4955416;28;20117;-61
2021/12/28 07:33:46;;;;;;;46.78;16.02;;;;;;;11.50;79.11;99111.28;4957428;28;20046;-60
2021/12/28 07:36:11;;;;;;;48.85;17.27;;;;;;;11.53;79.09;99113.81;4961171;28;20137;-61
2021/12/28 07:38:37;;;;;;;49.00;17.40;;;;;;;11.59;79.13;99102.41;4956478;28;20126;-60
2021/12/28 07:41:03;;;;;;;49.75;18.02;;;;;;;11.42;79.55;99092.28;4961165;28;20059;-59
2021/12/28 07:43:28;;;;;;;45.90;18.38;;;;;;;11.52;79.22;99099.06;4952626;28;20183;-60
2021/12/28 07:45:53;;;;;;;47.85;17.80;;;;;;;11.59;79.16;99089.34;4961549;28;20061;-60
2021/12/28 07:48:19;;;;;;;48.05;18.60;;;;;;;11.63;78.88;99094.50;4963065;28;20134;-59
2021/12/28 07:50:44;;;;;;;47.25;17.15;;;;;;;11.60;78.91;99091.94;4957463;28;20050;-60
2021/12/28 07:53:10;;;;;;;43.92;16.55;;;;;;;11.56;79.05;99090.28;4966521;28;20106;-59
2021/12/28 07:55:35;;;;;;;44.97;16.05;;;;;;;11.62;78.92;99087.56;4951498;28;20154;-59
2021/12/28 07:58:01;;;;;;;41.35;15.52;;;;;;;11.53;79.19;99086.84;4962187;28;20483;-60
2021/12/28 08:00:28;;;;;;;43.90;15.05;;;;;;;11.62;79.06;99081.47;4972900;28;20042;-60
2021/12/28 08:02:54;;;;;;;40.05;15.27;;;;;;;11.53;79.42;99084.25;4961795;28;20052;-60
2021/12/28 08:05:19;;;;;;;37.72;14.63;;;;;;;11.62;79.29;99082.34;4958206;28;20070;-60
2021/12/28 08:07:45;;;;;;;38.63;14.73;;;;;;;11.62;79.05;99078.88;4950138;28;20121;-60
2021/12/28 08:10:11;;;;;;;39.70;14.68;;;;;;;11.51;79.72;99076.47;4956963;28;20540;-60
2021/12/28 08:12:37;;;;;;;39.65;15.43;;;;;;;11.68;79.06;99076.13;4958626;28;20723;-59
2021/12/28 08:15:03;;;;;;;37.33;14.50;;;;;;;11.65;79.17;99069.22;4962199;28;20069;-59
2021/12/28 08:17:29;;;;;;;43.08;15.55;;;;;;;11.66;79.27;99070.94;4953071;28;20105;-59
2021/12/28 08:19:55;;;;;;;36.22;14.05;;;;;;;11.68;79.19;99073.53;4957360;28;20092;-60
2021/12/28 08:22:20;;;;;;;36.45;14.05;;;;;;;11.73;78.97;99074.28;4964039;28;20619;-59
2021/12/28 08:24:45;;;;;;;38.35;13.73;;;;;;;11.60;79.52;99064.97;4957857;28;20470;-60
2021/12/28 08:27:11;;;;;;;36.47;13.52;;;;;;;11.62;79.55;99065.81;4956668;28;20056;-60
2021/12/28 08:29:36;;;;;;;33.88;13.68;;;;;;;11.66;79.52;99070.94;4945920;28;20039;-59
2021/12/28 08:32:02;;;;;;;37.30;13.68;;;;;;;11.69;79.20;99060.44;4958722;28;20050;-59
2021/12/28 08:34:28;;;;;;;37.47;13.88;;;;;;;11.70;79.07;99064.78;4963147;28;20092;-59
2021/12/28 08:36:53;;;;;;;34.33;13.43;;;;;;;11.70;79.19;99053.47;4954951;28;20042;-60
2021/12/28 08:39:18;;;;;;;36.92;13.93;;;;;;;11.74;78.84;99060.38;4950332;28;20038;-60
2021/12/28 08:41:44;;;;;;;40.65;12.95;;;;;;;11.74;78.89;99053.41;4955306;28;20043;-60
2021/12/28 08:44:09;;;;;;;28.45;12.38;;;;;;;11.80;78.83;99057.66;4958005;28;20046;-61
2021/12/28 08:46:35;;;;;;;31.20;11.98;;;;;;;11.84;78.94;99053.22;4954630;28;20715;-59
2021/12/28 08:49:01;;;;;;;28.30;11.63;;;;;;;11.85;79.06;99060.16;4960458;28;20495;-61
2021/12/28 08:51:26;;;;;;;28.40;11.57;;;;;;;11.86;78.83;99046.22;4946799;28;20319;-60
2021/12/28 08:53:51;;;;;;;25.10;11.50;;;;;;;11.87;78.96;99047.94;4958790;28;20050;-61
2021/12/28 08:56:17;;;;;;;28.88;11.90;;;;;;;11.93;78.78;99045.19;4952424;28;20126;-60
2021/12/28 08:58:43;;;;;;;26.73;10.77;;;;;;;11.81;79.03;99048.94;4960087;28;20462;-60
2021/12/28 09:01:08;;;;;;;26.10;11.23;;;;;;;11.90;79.04;99045.25;4960984;28;20610;-59
2021/12/28 09:03:35;;;;;;;26.63;10.85;;;;;;;11.93;78.88;99039.97;4947954;28;20412;-60
2021/12/28 09:06:05;;;;;;;26.30;10.98;;;;;;;11.94;78.75;99036.47;4954064;28;20035;-59
2021/12/28 09:08:31;;;;;;;27.38;10.65;;;;;;;11.88;79.21;99034.00;4961767;28;20093;-60
2021/12/28 09:10:57;;;;;;;24.50;10.23;;;;;;;11.92;79.18;99022.59;4950641;28;20126;-60
2021/12/28 09:13:22;;;;;;;19.45;9.60;;;;;;;11.93;79.08;99021.69;4943953;28;20039;-59
2021/12/28 09:15:48;;;;;;;20.77;9.25;;;;;;;11.97;79.09;99018.13;4971174;28;20709;-59
2021/12/28 09:18:13;;;;;;;20.13;9.13;;;;;;;12.02;78.85;99021.47;4959315;28;20072;-61
2021/12/28 09:20:39;;;;;;;22.65;8.90;;;;;;;12.07;78.64;99014.44;4963858;28;20557;-61
2021/12/28 09:23:06;;;;;;;19.58;8.23;;;;;;;12.01;78.80;99009.34;4952248;28;20330;-59
2021/12/28 09:25:31;;;;;;;23.92;9.00;;;;;;;12.00;78.71;99002.41;4954711;28;20112;-59
2021/12/28 09:27:56;;;;;;;19.20;8.43;;;;;;;11.97;78.57;98992.84;4959685;28;20490;-60
2021/12/28 09:30:24;;;;;;;18.05;7.43;;;;;;;12.02;79.03;98998.84;4960926;28;20407;-60
2021/12/28 09:32:50;;;;;;;14.02;7.13;;;;;;;12.09;78.59;99002.16;4959964;28;20124;-60
2021/12/28 09:35:16;;;;;;;14.85;7.32;;;;;;;12.10;78.51;98996.91;4955278;28;20588;-60
2021/12/28 09:37:41;;;;;;;14.13;7.60;;;;;;;12.15;78.51;99002.03;4950567;28;20046;-59
2021/12/28 09:40:10;;;;;;;15.60;7.22;;;;;;;12.03;78.94;99002.31;4958513;28;20162;-61
2021/12/28 09:42:35;;;;;;;15.18;6.97;;;;;;;12.06;78.63;98995.28;4955708;28;20431;-59
2021/12/28 09:45:01;;;;;;;15.98;7.22;;;;;;;12.07;78.43;98991.78;4952234;28;20313;-59
2021/12/28 09:47:27;;;;;;;14.52;6.72;;;;;;;12.13;78.33;98990.78;4933901;28;20062;-60
2021/12/28 09:49:52;;;;;;;14.10;6.68;;;;;;;12.07;78.41;98989.16;4939685;28;20229;-60
2021/12/28 09:52:19;;;;;;;11.52;6.63;;;;;;;12.08;78.46;98985.63;4951662;28;20066;-59
2021/12/28 09:54:45;;;;;;;15.02;6.60;;;;;;;12.09;78.55;98981.28;4957750;28;20043;-60
2021/12/28 09:57:17;;;;;;;15.65;6.10;;;;;;;12.11;78.87;98976.88;4959062;28;20069;-59
2021/12/28 09:59:43;;;;;;;12.02;5.90;;;;;;;12.04;78.78;98977.91;4956354;28;20104;-59
2021/12/28 10:02:10;;;;;;;10.93;5.90;;;;;;;12.16;78.16;98980.25;4951487;28;20258;-60
2021/12/28 10:05:05;;;;;;;10.02;5.45;;;;;;;12.04;78.55;98978.78;4960213;28;20038;-61
2021/12/28 10:07:32;;;;;;;9.73;5.90;;;;;;;12.20;78.40;98974.91;4951460;28;20046;-60
2021/12/28 10:09:58;;;;;;;11.52;6.30;;;;;;;12.24;78.25;98969.63;4963655;28;20462;-60
2021/12/28 10:12:26;;;;;;;10.10;6.30;;;;;;;12.20;78.44;98971.44;4953818;28;20043;-60
2021/12/28 10:14:57;;;;;;;10.68;5.82;;;;;;;12.11;78.58;98967.31;4964554;28;20046;-60
2021/12/28 10:17:24;;;;;;;10.15;6.18;;;;;;;12.14;78.43;98962.00;4954760;28;20043;-60
2021/12/28 10:19:50;;;;;;;8.30;5.47;;;;;;;12.14;78.35;98959.38;4953112;28;20424;-59
2021/12/28 10:22:26;;;;;;;7.50;4.82;;;;;;;12.14;78.06;98964.59;4960697;28;20947;-59
2021/12/28 10:25:14;;;;;;;7.80;4.93;;;;;;;12.28;77.89;98947.75;4954974;28;20433;-60
2021/12/28 10:27:45;;;;;;;6.55;3.92;;;;;;;12.37;77.74;98956.25;4955968;28;22807;-60
2021/12/28 10:30:12;;;;;;;6.20;3.80;;;;;;;12.31;77.68;98952.91;4959430;28;20039;-60
2021/12/28 10:32:40;;;;;;;5.93;3.28;;;;;;;12.37;77.47;98950.16;4959102;28;20117;-60
2021/12/28 10:35:10;;;;;;;4.53;3.10;;;;;;;12.42;77.29;98950.88;4964428;28;20027;-59
2021/12/28 10:37:38;;;;;;;5.45;3.20;;;;;;;12.44;77.11;98943.88;4953949;28;20042;-61
2021/12/28 10:40:08;;;;;;;4.88;3.25;;;;;;;12.30;77.52;98939.00;4963681;28;20961;-59
2021/12/28 10:43:00;;;;;;;4.50;3.20;;;;;;;12.24;77.65;98936.53;4962491;28;20050;-60
2021/12/28 10:45:42;;;;;;;4.20;3.40;;;;;;;12.40;77.07;98929.16;4948249;28;20043;-59
2021/12/28 10:48:17;;;;;;;5.30;3.50;;;;;;;12.42;77.02;98932.59;4959984;28;20675;-61
2021/12/28 10:50:54;;;;;;;7.65;4.05;;;;;;;12.38;77.04;98916.13;4958369;28;20392;-60
2021/12/28 10:53:25;;;;;;;4.40;3.13;;;;;;;12.44;76.91;98922.97;4955961;28;20532;-60
2021/12/28 10:55:55;;;;;;;4.65;3.05;;;;;;;12.39;76.94;98917.84;4959737;28;20058;-59
2021/12/28 10:58:30;;;;;;;5.82;3.03;;;;;;;12.26;77.29;98921.66;4966050;28;20056;-59
2021/12/28 11:01:01;;;;;;;8.10;3.03;;;;;;;12.20;77.57;98917.44;4952956;28;20042;-59
2021/12/28 11:03:32;;;;;;;5.22;3.00;;;;;;;12.26;77.07;98915.59;4954056;28;20113;-59
2021/12/28 11:05:59;;;;;;;7.07;3.40;;;;;;;12.26;76.82;98905.13;4961207;28;20038;-60
2021/12/28 11:08:27;;;;;;;8.80;3.70;;;;;;;12.36;76.70;98912.72;4944345;28;20046;-60
2021/12/28 11:10:56;;;;;;;9.05;3.92;;;;;;;12.24;76.74;98909.53;4961378;28;20054;-60
2021/12/28 11:13:26;;;;;;;9.40;4.50;;;;;;;12.31;76.42;98906.75;4953662;28;20045;-59
2021/12/28 11:15:51;;;;;;;7.63;4.55;;;;;;;12.32;76.61;98911.03;4960410;28;20096;-60
2021/12/28 11:18:25;;;;;;;9.30;4.75;;;;;;;12.32;76.55;98902.38;4956258;28;20121;-59
2021/12/28 11:20:53;;;;;;;7.75;4.63;;;;;;;12.37;76.42;98906.59;4960033;28;20157;-60
2021/12/28 11:23:24;;;;;;;6.75;4.10;;;;;;;12.23;76.77;98898.22;4949291;28;20042;-59